Alma, Michigan
Current Conditions -  °F | °C
As of 12:32 PM on Wednesday 26 Nov 2014 (Local Time) from KAMN Reporting Station
Overcast Overcast  
Wind Chill: 30°   Ceiling: 2500
Heat Index: 30°   Visibility: 10mi
Dew Point: 22°   Wind: 0mph
Humidity: 73%   Direction: NA
Pressure: 30.14"   Gusts: NA
Location:  43.38°N, 84.66°W
Report Text: KAMN 261732Z AUTO 00000KT 10SM OVC025 M01/M06 A3014 RMK AO2 T10131056
Loading
Personal Weather Stations






























Interactive Weather Map New forecast layout! Learn more

10-Day Weather Forecast

Advertisements
Track Severe Weather on mobile